createdAt,value
2023-02-02T00:01:52.828Z,102290.88
2023-02-02T00:04:20.496Z,102291.75
2023-02-02T00:06:47.421Z,102290.88
2023-02-02T00:09:16.240Z,102291.75
2023-02-02T00:11:46.377Z,102289.19
2023-02-02T00:14:13.510Z,102293.44
2023-02-02T00:16:39.909Z,102296.84
2023-02-02T00:19:12.873Z,102298.50
2023-02-02T00:21:39.764Z,102295.97
2023-02-02T00:24:08.031Z,102301.06
2023-02-02T00:26:35.361Z,102295.13
2023-02-02T00:29:02.398Z,102295.09
2023-02-02T00:31:29.054Z,102291.69
2023-02-02T00:33:55.585Z,102286.59
2023-02-02T00:36:22.483Z,102295.06
2023-02-02T00:38:50.348Z,102285.75
2023-02-02T00:41:17.460Z,102287.41
2023-02-02T00:43:43.858Z,102294.22
2023-02-02T00:46:16.957Z,102295.03
2023-02-02T00:48:43.475Z,102295.06
2023-02-02T00:51:10.241Z,102288.28
2023-02-02T00:53:36.669Z,102294.19
2023-02-02T00:56:03.246Z,102294.19
2023-02-02T00:58:29.661Z,102298.41
2023-02-02T01:00:56.804Z,102294.16
2023-02-02T01:03:23.258Z,102296.69
2023-02-02T01:05:51.568Z,102306.03
2023-02-02T01:08:18.303Z,102302.59
2023-02-02T01:10:44.812Z,102305.13
2023-02-02T01:13:11.291Z,102300.03
2023-02-02T01:15:37.809Z,102298.31
2023-02-02T01:18:04.368Z,102305.94
2023-02-02T01:20:31.786Z,102320.31
2023-02-02T01:22:58.218Z,102309.25
2023-02-02T01:25:24.915Z,102307.53
2023-02-02T01:27:51.570Z,102304.13
2023-02-02T01:30:18.325Z,102317.69
2023-02-02T01:32:44.738Z,102315.09
2023-02-02T01:35:11.226Z,102321.03
2023-02-02T01:37:39.032Z,102317.66
2023-02-02T01:40:06.731Z,102313.38
2023-02-02T01:42:33.378Z,102317.56
2023-02-02T01:45:06.056Z,102322.66
2023-02-02T01:47:45.689Z,102315.84
2023-02-02T01:50:15.337Z,102321.75
2023-02-02T01:52:45.680Z,102325.13
2023-02-02T01:55:15.661Z,102329.38
2023-02-02T01:57:53.218Z,102326.84
2023-02-02T02:00:25.352Z,102326.81
2023-02-02T02:02:55.425Z,102325.06
2023-02-02T02:05:28.366Z,102325.03
2023-02-02T02:08:03.352Z,102319.09
2023-02-02T02:10:29.727Z,102328.44
2023-02-02T02:12:56.265Z,102323.34
2023-02-02T02:15:41.525Z,102316.53
2023-02-02T02:18:19.543Z,102314.84
2023-02-02T02:21:19.190Z,102314.84
2023-02-02T02:24:26.345Z,102303.00
2023-02-02T02:27:26.131Z,102300.41
2023-02-02T02:30:29.872Z,102308.00
2023-02-02T02:33:04.774Z,102303.81
2023-02-02T02:35:37.714Z,102302.94
2023-02-02T02:38:30.425Z,102301.22
2023-02-02T02:41:03.601Z,102296.13
2023-02-02T02:43:40.622Z,102293.59
2023-02-02T02:46:08.169Z,102294.47
2023-02-02T02:48:34.581Z,102285.19
2023-02-02T02:51:28.565Z,102278.41
2023-02-02T02:53:56.247Z,102268.22
2023-02-02T02:56:33.637Z,102280.13
2023-02-02T02:59:10.681Z,102275.94
2023-02-02T03:01:44.922Z,102269.19
2023-02-02T03:04:33.592Z,102274.31
2023-02-02T03:07:29.190Z,102268.41
2023-02-02T03:09:58.996Z,102277.75
2023-02-02T03:12:25.662Z,102277.78
2023-02-02T03:14:52.144Z,102291.41
2023-02-02T03:17:18.639Z,102296.50
2023-02-02T03:19:45.043Z,102297.41
2023-02-02T03:22:11.691Z,102300.84
2023-02-02T03:24:38.152Z,102301.69
2023-02-02T03:27:05.711Z,102300.88
2023-02-02T03:29:32.189Z,102300.06
2023-02-02T03:31:58.815Z,102309.44
2023-02-02T03:34:25.218Z,102318.78
2023-02-02T03:36:51.636Z,102319.66
2023-02-02T03:39:18.085Z,102312.03
2023-02-02T03:41:44.608Z,102306.06
2023-02-02T03:44:11.061Z,102309.50
2023-02-02T03:46:37.464Z,102304.41
2023-02-02T03:49:04.011Z,102305.28
2023-02-02T03:51:30.638Z,102305.28
2023-02-02T03:53:57.045Z,102307.84
2023-02-02T03:56:23.442Z,102307.88
2023-02-02T03:58:49.915Z,102308.75
2023-02-02T04:01:16.599Z,102307.88
2023-02-02T04:03:43.204Z,102301.94
2023-02-02T04:06:09.789Z,102298.56
2023-02-02T04:08:36.243Z,102297.75
2023-02-02T04:11:02.903Z,102301.16
2023-02-02T04:13:29.404Z,102293.50
2023-02-02T04:16:01.786Z,102296.91
2023-02-02T04:18:29.173Z,102310.50
2023-02-02T04:21:00.172Z,102296.94
2023-02-02T04:23:27.494Z,102299.50
2023-02-02T04:25:54.733Z,102291.84
2023-02-02T04:28:22.560Z,102285.91
2023-02-02T04:30:50.279Z,102277.44
2023-02-02T04:33:17.332Z,102285.91
2023-02-02T04:35:44.195Z,102296.94
2023-02-02T04:38:10.799Z,102303.75
2023-02-02T04:40:42.032Z,102310.56
2023-02-02T04:43:08.788Z,102300.38
2023-02-02T04:45:35.390Z,102305.47
2023-02-02T04:48:02.609Z,102303.81
2023-02-02T04:50:29.841Z,102308.91
2023-02-02T04:52:56.274Z,102310.63
2023-02-02T04:55:23.242Z,102328.53
2023-02-02T04:57:49.883Z,102318.34
2023-02-02T05:00:16.646Z,102328.53
2023-02-02T05:02:43.243Z,102327.66
2023-02-02T05:05:12.593Z,102320.91
2023-02-02T05:07:40.258Z,102321.75
2023-02-02T05:10:08.667Z,102327.72
2023-02-02T05:12:35.328Z,102332.81
2023-02-02T05:15:03.440Z,102319.25
2023-02-02T05:17:30.007Z,102336.25
2023-02-02T05:19:56.525Z,102324.34
2023-02-02T05:22:23.096Z,102319.25
2023-02-02T05:24:49.722Z,102323.53
2023-02-02T05:27:16.132Z,102314.22
2023-02-02T05:29:42.560Z,102324.38
2023-02-02T05:32:09.058Z,102325.22
2023-02-02T05:34:35.618Z,102321.81
2023-02-02T05:37:02.020Z,102329.44
2023-02-02T05:39:28.461Z,102326.06
2023-02-02T05:41:54.946Z,102324.34
2023-02-02T05:44:21.386Z,102326.06
2023-02-02T05:46:47.776Z,102326.06
2023-02-02T05:49:14.568Z,102326.06
2023-02-02T05:51:45.597Z,102326.06
2023-02-02T05:54:12.257Z,102324.34
2023-02-02T05:56:38.792Z,102332.00
2023-02-02T05:59:07.506Z,102330.28
2023-02-02T06:01:34.642Z,102337.09
2023-02-02T06:04:01.128Z,102338.75
2023-02-02T06:06:27.778Z,102337.03
2023-02-02T06:08:54.255Z,102338.72
2023-02-02T06:11:20.759Z,102339.56
2023-02-02T06:13:47.260Z,102339.56
2023-02-02T06:16:14.160Z,102344.59
2023-02-02T06:18:40.604Z,102338.66
2023-02-02T06:21:07.248Z,102346.25
2023-02-02T06:23:34.605Z,102346.22
2023-02-02T06:26:01.573Z,102355.56
2023-02-02T06:28:28.024Z,102340.25
2023-02-02T06:30:54.522Z,102348.72
2023-02-02T06:33:20.956Z,102359.78
2023-02-02T06:35:47.404Z,102358.06
2023-02-02T06:38:13.883Z,102369.09
2023-02-02T06:40:40.353Z,102368.25
2023-02-02T06:43:06.812Z,102369.91
2023-02-02T06:45:33.247Z,102375.88
2023-02-02T06:48:03.503Z,102377.53
2023-02-02T06:50:30.447Z,102371.59
2023-02-02T06:52:56.867Z,102379.25
2023-02-02T06:55:23.590Z,102388.59
2023-02-02T06:57:56.562Z,102382.66
2023-02-02T07:00:23.166Z,102381.81
2023-02-02T07:02:49.703Z,102385.19
2023-02-02T07:05:16.265Z,102386.00
2023-02-02T07:07:42.694Z,102377.53
2023-02-02T07:10:09.365Z,102374.97
2023-02-02T07:12:55.766Z,102375.81
2023-02-02T07:15:22.789Z,102373.25
2023-02-02T07:17:49.304Z,102379.19
2023-02-02T07:20:16.013Z,102380.91
2023-02-02T07:22:42.576Z,102393.63
2023-02-02T07:25:09.030Z,102386.81
2023-02-02T07:27:38.292Z,102380.00
2023-02-02T07:30:05.296Z,102390.19
2023-02-02T07:32:31.786Z,102402.09
2023-02-02T07:34:58.230Z,102408.03
2023-02-02T07:37:24.737Z,102411.44
2023-02-02T07:39:53.758Z,102407.19
2023-02-02T07:42:20.630Z,102410.63
2023-02-02T07:44:47.051Z,102414.91
2023-02-02T07:47:13.434Z,102421.72
2023-02-02T07:49:39.925Z,102411.53
2023-02-02T07:52:07.053Z,102409.00
2023-02-02T07:54:33.582Z,102422.63
2023-02-02T07:57:02.167Z,102413.28
2023-02-02T07:59:29.601Z,102423.50
2023-02-02T08:01:57.861Z,102425.22
2023-02-02T08:04:24.355Z,102428.63
2023-02-02T08:06:51.279Z,102419.28
2023-02-02T08:09:17.676Z,102442.22
2023-02-02T08:11:44.170Z,102427.81
2023-02-02T08:14:13.143Z,102442.28
2023-02-02T08:16:39.674Z,102444.84
2023-02-02T08:19:06.440Z,102445.69
2023-02-02T08:21:34.312Z,102439.75
2023-02-02T08:24:02.104Z,102449.13
2023-02-02T08:26:30.749Z,102459.34
2023-02-02T08:29:01.032Z,102457.66
2023-02-02T08:31:33.451Z,102456.78
2023-02-02T08:34:00.150Z,102466.13
2023-02-02T08:36:28.735Z,102465.31
2023-02-02T08:38:55.703Z,102469.59
2023-02-02T08:41:24.147Z,102472.16
2023-02-02T08:43:50.710Z,102478.09
2023-02-02T08:46:19.010Z,102479.81
2023-02-02T08:48:46.191Z,102484.97
2023-02-02T08:51:15.955Z,102484.09
2023-02-02T08:53:42.830Z,102485.00
2023-02-02T08:56:15.654Z,102488.44
2023-02-02T08:58:47.263Z,102489.31
2023-02-02T09:01:20.082Z,102487.66
2023-02-02T09:03:46.997Z,102490.25
2023-02-02T09:06:16.478Z,102494.53
2023-02-02T09:08:43.169Z,102485.19
2023-02-02T09:11:12.421Z,102490.34
2023-02-02T09:13:40.486Z,102490.34
2023-02-02T09:16:10.631Z,102501.38
2023-02-02T09:18:37.373Z,102504.00
2023-02-02T09:21:07.169Z,102517.66
2023-02-02T09:23:36.414Z,102515.94
2023-02-02T09:26:29.726Z,102515.16
2023-02-02T09:28:59.713Z,102521.13
2023-02-02T09:31:26.989Z,102523.72
2023-02-02T09:33:53.860Z,102531.38
2023-02-02T09:36:23.341Z,102526.28
2023-02-02T09:38:51.316Z,102526.28
2023-02-02T09:41:37.540Z,102529.72
2023-02-02T09:44:21.911Z,102532.22
2023-02-02T09:46:56.835Z,102537.34
2023-02-02T09:49:35.348Z,102531.38
2023-02-02T09:52:12.103Z,102533.94
2023-02-02T09:54:51.762Z,102539.03
2023-02-02T09:57:24.951Z,102533.88
2023-02-02T09:59:54.057Z,102542.41
2023-02-02T10:02:57.038Z,102547.50
2023-02-02T10:05:29.508Z,102545.78
2023-02-02T10:08:01.935Z,102546.69
2023-02-02T10:10:43.417Z,102560.34
2023-02-02T10:13:22.538Z,102562.88
2023-02-02T10:16:08.222Z,102562.88
2023-02-02T10:18:48.809Z,102564.56
2023-02-02T10:21:34.123Z,102567.13
2023-02-02T10:24:03.029Z,102579.03
2023-02-02T10:26:52.266Z,102576.50
2023-02-02T10:29:28.080Z,102586.75
2023-02-02T10:32:28.372Z,102579.13
2023-02-02T10:35:14.645Z,102582.56
2023-02-02T10:38:02.913Z,102584.31
2023-02-02T10:40:44.303Z,102575.81
2023-02-02T10:43:47.925Z,102580.09
2023-02-02T10:46:22.452Z,102586.03
2023-02-02T10:48:49.824Z,102581.81
2023-02-02T10:51:29.771Z,102590.31
2023-02-02T10:54:00.087Z,102587.75
2023-02-02T10:56:35.120Z,102592.78
2023-02-02T10:59:09.695Z,102585.13
2023-02-02T11:01:36.404Z,102595.34
2023-02-02T11:04:21.412Z,102591.94
2023-02-02T11:06:50.843Z,102607.25
2023-02-02T11:09:24.082Z,102593.63
2023-02-02T11:12:19.290Z,102592.78
2023-02-02T11:15:01.897Z,102578.34
2023-02-02T11:17:29.881Z,102582.63
2023-02-02T11:19:56.327Z,102585.19
2023-02-02T11:22:34.153Z,102590.34
2023-02-02T11:25:05.240Z,102570.78
2023-02-02T11:27:33.463Z,102573.34
2023-02-02T11:30:09.603Z,102581.88
2023-02-02T11:32:37.784Z,102586.16
2023-02-02T11:35:04.238Z,102585.38
2023-02-02T11:37:32.601Z,102582.81
2023-02-02T11:40:22.608Z,102579.38
2023-02-02T11:42:51.483Z,102581.09
2023-02-02T11:45:49.905Z,102587.91
2023-02-02T11:48:21.670Z,102579.44
2023-02-02T11:50:51.796Z,102588.81
2023-02-02T11:53:30.220Z,102578.59
2023-02-02T11:56:01.196Z,102578.63
2023-02-02T11:58:43.093Z,102572.66
2023-02-02T12:01:39.730Z,102575.22
2023-02-02T12:04:18.211Z,102575.22
2023-02-02T12:06:45.849Z,102577.78
2023-02-02T12:09:17.947Z,102576.91
2023-02-02T12:12:18.953Z,102581.16
2023-02-02T12:14:52.257Z,102574.34
2023-02-02T12:17:32.947Z,102574.34
2023-02-02T12:20:16.408Z,102571.78
2023-02-02T12:23:04.698Z,102570.88
2023-02-02T12:25:34.272Z,102570.88
2023-02-02T12:28:21.191Z,102571.69
2023-02-02T12:31:14.693Z,102561.47
2023-02-02T12:34:00.790Z,102564.84
2023-02-02T12:36:27.200Z,102569.97
2023-02-02T12:39:10.990Z,102567.41
2023-02-02T12:42:01.836Z,102567.41
2023-02-02T12:45:01.401Z,102560.56
2023-02-02T12:47:33.665Z,102565.69
2023-02-02T12:50:21.044Z,102569.94
2023-02-02T12:53:07.113Z,102564.84
2023-02-02T12:56:02.098Z,102565.69
2023-02-02T12:58:43.627Z,102565.69
2023-02-02T13:01:26.947Z,102560.56
2023-02-02T13:04:07.094Z,102557.97
2023-02-02T13:09:29.790Z,102562.16
2023-02-02T13:12:06.564Z,102558.69
2023-02-02T13:14:41.759Z,102556.13
2023-02-02T13:17:20.868Z,102563.78
2023-02-02T13:19:53.790Z,102563.72
2023-02-02T13:22:28.098Z,102567.09
2023-02-02T13:25:08.551Z,102563.66
2023-02-02T13:27:36.616Z,102572.19
2023-02-02T13:30:10.401Z,102570.47
2023-02-02T13:32:44.835Z,102573.81
2023-02-02T13:35:17.480Z,102582.31
2023-02-02T13:37:52.945Z,102575.50
2023-02-02T13:40:32.170Z,102576.31
2023-02-02T13:43:26.620Z,102583.13
2023-02-02T13:46:05.617Z,102577.97
2023-02-02T13:48:47.615Z,102577.06
2023-02-02T13:51:23.322Z,102574.53
2023-02-02T13:54:24.883Z,102575.41
2023-02-02T13:57:25.868Z,102580.53
2023-02-02T14:00:13.738Z,102575.44
2023-02-02T14:02:47.676Z,102573.75
2023-02-02T14:05:35.561Z,102583.91
2023-02-02T14:08:17.181Z,102572.03
2023-02-02T14:10:57.306Z,102574.59
2023-02-02T14:14:04.179Z,102576.31
2023-02-02T14:16:33.343Z,102577.16
2023-02-02T14:19:14.202Z,102578.03
2023-02-02T14:21:40.537Z,102581.50
2023-02-02T14:24:25.964Z,102587.41
2023-02-02T14:26:55.155Z,102590.78
2023-02-02T14:29:34.828Z,102590.78
2023-02-02T14:32:24.349Z,102597.53
2023-02-02T14:34:52.341Z,102595.88
2023-02-02T14:37:24.549Z,102593.34
2023-02-02T14:40:06.355Z,102587.34
2023-02-02T14:43:48.952Z,102583.91
2023-02-02T14:46:15.473Z,102590.72
2023-02-02T14:48:48.395Z,102596.63
2023-02-02T14:51:21.245Z,102603.38
2023-02-02T14:53:49.916Z,102599.97
2023-02-02T14:56:20.512Z,102608.47
2023-02-02T14:58:52.576Z,102616.13
2023-02-02T15:01:28.045Z,102623.75
2023-02-02T15:04:14.369Z,102615.22
2023-02-02T15:06:43.044Z,102617.75
2023-02-02T15:09:33.440Z,102620.31
2023-02-02T15:12:02.519Z,102621.19
2023-02-02T15:15:13.616Z,102617.75
2023-02-02T15:17:48.486Z,102621.16
2023-02-02T15:20:29.428Z,102616.94
2023-02-02T15:23:17.453Z,102618.59
2023-02-02T15:25:52.231Z,102614.34
2023-02-02T15:28:25.166Z,102626.22
2023-02-02T15:30:58.410Z,102630.47
2023-02-02T15:33:40.081Z,102622.81
2023-02-02T15:36:16.513Z,102615.19
2023-02-02T15:38:46.529Z,102622.84
2023-02-02T15:41:23.763Z,102618.59
2023-02-02T15:43:55.453Z,102622.88
2023-02-02T15:46:29.093Z,102621.22
2023-02-02T15:49:33.170Z,102629.75
2023-02-02T15:52:10.718Z,102618.69
2023-02-02T15:54:39.706Z,102628.06
2023-02-02T15:57:35.332Z,102626.31
2023-02-02T16:00:25.823Z,102630.56
2023-02-02T16:03:05.364Z,102628.00
2023-02-02T16:05:34.816Z,102622.91
2023-02-02T16:08:09.136Z,102639.06
2023-02-02T16:10:35.967Z,102636.50
2023-02-02T16:13:02.812Z,102639.03
2023-02-02T16:15:31.769Z,102640.72
2023-02-02T16:18:11.781Z,102652.63
2023-02-02T16:20:44.211Z,102656.84
2023-02-02T16:23:16.203Z,102660.25
2023-02-02T16:25:51.584Z,102668.75
2023-02-02T16:28:21.918Z,102664.50
2023-02-02T16:30:51.655Z,102661.09
2023-02-02T16:33:30.034Z,102663.66
2023-02-02T16:35:57.119Z,102658.53
2023-02-02T16:38:34.713Z,102669.56
2023-02-02T16:41:12.201Z,102672.13
2023-02-02T16:43:40.371Z,102673.81
2023-02-02T16:46:11.080Z,102679.75
2023-02-02T16:48:46.403Z,102680.59
2023-02-02T16:51:15.851Z,102682.28
2023-02-02T16:54:12.342Z,102686.56
2023-02-02T16:56:42.247Z,102684.00
2023-02-02T16:59:30.700Z,102678.84
2023-02-02T17:02:01.963Z,102689.06
2023-02-02T17:04:32.261Z,102689.06
2023-02-02T17:07:13.139Z,102692.47
2023-02-02T17:09:41.485Z,102698.41
2023-02-02T17:12:32.270Z,102696.69
2023-02-02T17:15:05.966Z,102689.03
2023-02-02T17:17:34.564Z,102700.06
2023-02-02T17:20:01.019Z,102705.16
2023-02-02T17:22:27.870Z,102692.38
2023-02-02T17:24:54.894Z,102702.59
2023-02-02T17:27:31.598Z,102697.50
2023-02-02T17:30:05.159Z,102694.97
2023-02-02T17:32:31.672Z,102696.66
2023-02-02T17:34:58.075Z,102703.47
2023-02-02T17:37:24.580Z,102704.31
2023-02-02T17:39:51.017Z,102705.16
2023-02-02T17:42:28.170Z,102700.94
2023-02-02T17:44:54.529Z,102706.88
2023-02-02T17:47:21.033Z,102703.47
2023-02-02T17:49:47.442Z,102706.03
2023-02-02T17:52:13.925Z,102708.56
2023-02-02T17:54:40.346Z,102706.03
2023-02-02T17:57:06.832Z,102706.88
2023-02-02T17:59:33.271Z,102700.94
2023-02-02T18:01:59.751Z,102694.97
2023-02-02T18:04:26.919Z,102694.13
2023-02-02T18:06:53.432Z,102696.69
2023-02-02T18:09:19.840Z,102689.91
2023-02-02T18:11:48.894Z,102689.06
2023-02-02T18:14:15.503Z,102696.69
2023-02-02T18:16:41.987Z,102693.31
2023-02-02T18:19:08.659Z,102694.13
2023-02-02T18:21:35.194Z,102684.81
2023-02-02T18:24:01.869Z,102689.06
2023-02-02T18:26:28.371Z,102681.41
2023-02-02T18:28:54.812Z,102683.97
2023-02-02T18:31:23.765Z,102678.03
2023-02-02T18:33:51.045Z,102683.13
2023-02-02T18:36:19.964Z,102681.47
2023-02-02T18:38:48.074Z,102680.63
2023-02-02T18:41:16.553Z,102688.31
2023-02-02T18:43:44.632Z,102684.03
2023-02-02T18:46:14.200Z,102689.13
2023-02-02T18:48:41.595Z,102693.41
2023-02-02T18:51:16.085Z,102691.69
2023-02-02T18:53:47.260Z,102684.03
2023-02-02T18:56:15.106Z,102681.50
2023-02-02T18:58:41.584Z,102671.31
2023-02-02T19:01:16.217Z,102668.72
2023-02-02T19:03:47.049Z,102663.63
2023-02-02T19:06:32.030Z,102668.72
2023-02-02T19:08:58.552Z,102669.56
2023-02-02T19:11:28.905Z,102676.38
2023-02-02T19:13:56.085Z,102668.66
2023-02-02T19:16:27.988Z,102670.34
2023-02-02T19:19:00.584Z,102664.34
2023-02-02T19:21:30.472Z,102660.88
2023-02-02T19:23:57.091Z,102665.94
2023-02-02T19:26:26.142Z,102663.31
2023-02-02T19:28:53.813Z,102664.94
2023-02-02T19:31:20.517Z,102666.56
2023-02-02T19:33:51.888Z,102663.16
2023-02-02T19:36:23.670Z,102662.28
2023-02-02T19:38:54.868Z,102659.69
2023-02-02T19:41:23.616Z,102662.25
2023-02-02T19:43:55.862Z,102667.34
2023-02-02T19:46:26.109Z,102669.03
2023-02-02T19:48:58.750Z,102672.41
2023-02-02T19:51:34.011Z,102673.25
2023-02-02T19:54:01.224Z,102668.13
2023-02-02T19:56:33.896Z,102672.31
2023-02-02T19:59:00.574Z,102672.28
2023-02-02T20:01:29.910Z,102679.94
2023-02-02T20:03:58.447Z,102676.50
2023-02-02T20:06:30.400Z,102683.31
2023-02-02T20:08:56.882Z,102686.69
2023-02-02T20:11:30.502Z,102690.94
2023-02-02T20:13:56.948Z,102696.88
2023-02-02T20:16:24.811Z,102693.50
2023-02-02T20:18:54.033Z,102693.50
2023-02-02T20:21:32.358Z,102691.88
2023-02-02T20:23:58.759Z,102697.81
2023-02-02T20:26:38.359Z,102697.00
2023-02-02T20:29:23.140Z,102696.19
2023-02-02T20:31:52.644Z,102694.56
2023-02-02T20:34:35.315Z,102702.28
2023-02-02T20:37:24.006Z,102693.78
2023-02-02T20:40:36.675Z,102691.25
2023-02-02T20:43:04.539Z,102693.78
2023-02-02T20:45:30.962Z,102703.16
2023-02-02T20:47:57.346Z,102698.16
2023-02-02T20:50:24.021Z,102699.88
2023-02-02T20:52:51.760Z,102690.56
2023-02-02T20:55:18.269Z,102690.63
2023-02-02T20:57:44.717Z,102690.66
2023-02-02T21:00:15.332Z,102695.81
2023-02-02T21:02:42.034Z,102692.50
2023-02-02T21:05:09.144Z,102701.09
2023-02-02T21:07:35.629Z,102705.38
2023-02-02T21:10:02.159Z,102696.91
2023-02-02T21:12:28.762Z,102702.91
2023-02-02T21:14:55.235Z,102704.66
2023-02-02T21:17:21.744Z,102707.22
2023-02-02T21:19:48.210Z,102697.84
2023-02-02T21:22:14.782Z,102697.91
2023-02-02T21:24:41.222Z,102693.72
2023-02-02T21:27:08.881Z,102692.84
2023-02-02T21:29:35.478Z,102683.53
2023-02-02T21:32:03.361Z,102701.41
2023-02-02T21:34:30.928Z,102698.00
2023-02-02T21:36:58.752Z,102693.75
2023-02-02T21:39:35.375Z,102706.56
2023-02-02T21:42:07.977Z,102698.94
2023-02-02T21:44:44.611Z,102695.56
2023-02-02T21:47:32.257Z,102689.63
2023-02-02T21:50:11.415Z,102692.22
2023-02-02T21:52:38.025Z,102694.78
2023-02-02T21:55:34.581Z,102686.28
2023-02-02T21:58:14.931Z,102692.25
2023-02-02T22:00:41.478Z,102702.50
2023-02-02T22:03:26.952Z,102699.13
2023-02-02T22:06:01.683Z,102682.13
2023-02-02T22:08:29.299Z,102686.38
2023-02-02T22:10:55.793Z,102684.66
2023-02-02T22:13:24.923Z,102677.00
2023-02-02T22:15:53.118Z,102670.22
2023-02-02T22:18:23.969Z,102662.56
2023-02-02T22:20:52.452Z,102656.56
2023-02-02T22:23:24.659Z,102657.50
2023-02-02T22:25:54.363Z,102656.66
2023-02-02T22:28:29.802Z,102656.66
2023-02-02T22:30:58.478Z,102657.50
2023-02-02T22:33:26.542Z,102653.28
2023-02-02T22:35:53.692Z,102669.44
2023-02-02T22:38:23.089Z,102655.84
2023-02-02T22:40:51.324Z,102661.84
2023-02-02T22:43:19.897Z,102654.19
2023-02-02T22:45:46.655Z,102650.81
2023-02-02T22:48:14.496Z,102632.88
2023-02-02T22:50:41.476Z,102634.59
2023-02-02T22:53:07.962Z,102632.03
2023-02-02T22:55:34.721Z,102627.78
2023-02-02T22:58:01.268Z,102624.38
2023-02-02T23:00:30.217Z,102612.47
2023-02-02T23:02:56.908Z,102597.16
2023-02-02T23:05:24.455Z,102592.91
2023-02-02T23:07:51.419Z,102575.88
2023-02-02T23:10:24.515Z,102576.72
2023-02-02T23:12:54.928Z,102585.25
2023-02-02T23:15:21.867Z,102578.44
2023-02-02T23:17:48.413Z,102584.34
2023-02-02T23:20:15.853Z,102574.97
2023-02-02T23:22:42.546Z,102579.19
2023-02-02T23:25:10.442Z,102595.41
2023-02-02T23:27:36.992Z,102600.50
2023-02-02T23:30:04.654Z,102597.91
2023-02-02T23:32:31.209Z,102597.06
2023-02-02T23:34:57.587Z,102602.19
2023-02-02T23:37:23.982Z,102588.59
2023-02-02T23:39:50.453Z,102593.69
2023-02-02T23:42:16.913Z,102592.03
2023-02-02T23:44:43.286Z,102587.81
2023-02-02T23:47:10.424Z,102609.06
2023-02-02T23:49:37.281Z,102598.88
2023-02-02T23:52:04.131Z,102610.78
2023-02-02T23:54:31.856Z,102619.28
2023-02-02T23:56:58.752Z,102623.56
2023-02-02T23:59:25.212Z,102619.28
